createdAt,value
2018-03-28T00:00:06.661Z,5.28
2018-03-28T00:02:34.943Z,4.90
2018-03-28T00:05:03.255Z,5.47
2018-03-28T00:07:31.567Z,5.78
2018-03-28T00:10:00.186Z,5.93
2018-03-28T00:12:28.556Z,5.62
2018-03-28T00:14:57.100Z,5.65
2018-03-28T00:17:25.575Z,5.35
2018-03-28T00:19:54.024Z,4.80
2018-03-28T00:22:22.444Z,5.60
2018-03-28T00:24:50.888Z,5.55
2018-03-28T00:27:19.207Z,5.35
2018-03-28T00:29:47.524Z,5.23
2018-03-28T00:32:16.653Z,5.35
2018-03-28T00:34:45.067Z,5.50
2018-03-28T00:37:14.298Z,5.72
2018-03-28T00:39:42.586Z,5.60
2018-03-28T00:42:10.906Z,6.05
2018-03-28T00:44:39.215Z,5.80
2018-03-28T00:47:07.551Z,6.50
2018-03-28T00:49:35.825Z,5.03
2018-03-28T00:52:04.151Z,5.05
2018-03-28T00:54:32.490Z,6.05
2018-03-28T00:57:01.570Z,6.85
2018-03-28T00:59:29.947Z,5.32
2018-03-28T01:01:58.582Z,5.82
2018-03-28T01:04:27.872Z,4.93
2018-03-28T01:06:56.278Z,5.15
2018-03-28T01:09:25.539Z,5.47
2018-03-28T01:11:54.054Z,5.45
2018-03-28T01:14:22.433Z,5.82
2018-03-28T01:16:50.727Z,5.80
2018-03-28T01:19:19.056Z,6.90
2018-03-28T01:21:47.343Z,7.32
2018-03-28T01:24:15.652Z,8.43
2018-03-28T01:26:45.490Z,7.45
2018-03-28T01:29:13.927Z,8.63
2018-03-28T01:31:43.445Z,9.18
2018-03-28T01:34:11.731Z,9.50
2018-03-28T01:36:40.822Z,8.57
2018-03-28T01:39:09.194Z,9.90
2018-03-28T01:41:37.515Z,6.10
2018-03-28T01:44:06.162Z,7.05
2018-03-28T01:46:34.458Z,11.43
2018-03-28T01:49:02.746Z,12.88
2018-03-28T01:51:31.075Z,10.50
2018-03-28T01:53:59.563Z,10.35
2018-03-28T01:56:28.298Z,10.57
2018-03-28T01:58:56.662Z,11.10
2018-03-28T02:01:25.218Z,11.95
2018-03-28T02:03:53.874Z,12.00
2018-03-28T02:06:22.252Z,10.85
2018-03-28T02:08:50.703Z,10.73
2018-03-28T02:11:19.760Z,11.57
2018-03-28T02:13:48.849Z,10.70
2018-03-28T02:16:17.138Z,11.98
2018-03-28T02:18:45.467Z,11.18
2018-03-28T02:21:14.146Z,12.80
2018-03-28T02:23:42.774Z,11.98
2018-03-28T02:26:11.133Z,12.90
2018-03-28T02:28:40.320Z,13.32
2018-03-28T02:31:08.654Z,11.73
2018-03-28T02:33:36.959Z,12.95
2018-03-28T02:36:06.043Z,14.07
2018-03-28T02:38:34.340Z,16.33
2018-03-28T02:41:02.644Z,13.20
2018-03-28T02:43:31.071Z,12.27
2018-03-28T02:46:00.176Z,15.02
2018-03-28T02:48:28.630Z,12.37
2018-03-28T02:50:57.095Z,12.67
2018-03-28T02:53:25.592Z,12.27
2018-03-28T02:55:54.807Z,13.38
2018-03-28T02:58:23.300Z,12.52
2018-03-28T03:00:51.640Z,13.85
2018-03-28T03:03:19.986Z,14.87
2018-03-28T03:05:48.319Z,13.62
2018-03-28T03:08:16.708Z,12.77
2018-03-28T03:10:45.211Z,13.50
2018-03-28T03:13:13.715Z,14.13
2018-03-28T03:15:42.229Z,14.13
2018-03-28T03:18:11.666Z,16.08
2018-03-28T03:20:39.959Z,16.65
2018-03-28T03:23:08.254Z,16.12
2018-03-28T03:25:36.587Z,18.13
2018-03-28T03:28:04.913Z,15.05
2018-03-28T03:30:33.215Z,16.98
2018-03-28T03:33:01.546Z,15.25
2018-03-28T03:35:29.850Z,15.85
2018-03-28T03:37:58.234Z,14.77
2018-03-28T03:40:26.578Z,17.15
2018-03-28T03:42:55.787Z,15.83
2018-03-28T03:45:24.166Z,18.48
2018-03-28T03:47:52.596Z,18.65
2018-03-28T03:50:20.917Z,16.25
2018-03-28T03:52:49.250Z,18.23
2018-03-28T03:55:18.315Z,17.90
2018-03-28T03:57:46.619Z,18.92
2018-03-28T04:02:50.266Z,19.50
2018-03-28T04:05:18.604Z,21.40
2018-03-28T04:07:46.904Z,18.67
2018-03-28T04:10:15.235Z,19.08
2018-03-28T04:12:43.678Z,20.08
2018-03-28T04:15:12.075Z,17.08
2018-03-28T04:17:40.401Z,20.83
2018-03-28T04:20:08.735Z,19.62
2018-03-28T04:22:37.032Z,17.70
2018-03-28T04:25:05.371Z,19.23
2018-03-28T04:27:34.432Z,19.27
2018-03-28T04:30:02.784Z,17.80
2018-03-28T04:32:31.995Z,18.70
2018-03-28T04:35:00.299Z,17.02
2018-03-28T04:37:28.671Z,18.37
2018-03-28T04:39:57.059Z,19.83
2018-03-28T04:42:25.598Z,19.60
2018-03-28T04:44:54.011Z,21.15
2018-03-28T04:47:23.216Z,21.00
2018-03-28T04:49:51.599Z,19.33
2018-03-28T04:52:19.926Z,23.48
2018-03-28T04:54:48.251Z,23.85
2018-03-28T04:57:16.582Z,21.48
2018-03-28T04:59:45.031Z,22.62
2018-03-28T05:02:13.524Z,23.87
2018-03-28T05:04:41.983Z,23.35
2018-03-28T05:07:11.047Z,24.80
2018-03-28T05:09:39.397Z,22.00
2018-03-28T05:12:07.683Z,23.67
2018-03-28T05:14:36.024Z,21.45
2018-03-28T05:17:04.345Z,16.83
2018-03-28T05:19:32.647Z,22.40
2018-03-28T05:22:01.181Z,21.42
2018-03-28T05:24:29.618Z,24.65
2018-03-28T05:26:58.934Z,22.80
2018-03-28T05:29:28.100Z,22.08
2018-03-28T05:31:56.688Z,23.15
2018-03-28T05:34:25.871Z,21.55
2018-03-28T05:36:54.456Z,22.52
2018-03-28T05:39:22.983Z,21.10
2018-03-28T05:41:51.327Z,23.83
2018-03-28T05:44:25.306Z,20.25
2018-03-28T05:46:53.763Z,22.37
2018-03-28T05:49:22.247Z,24.33
2018-03-28T05:51:51.326Z,24.75
2018-03-28T05:54:19.651Z,21.62
2018-03-28T05:56:48.083Z,25.77
2018-03-28T05:59:16.390Z,24.90
2018-03-28T06:01:45.066Z,25.45
2018-03-28T06:04:13.430Z,25.60
2018-03-28T06:06:41.842Z,25.63
2018-03-28T06:09:10.166Z,24.20
2018-03-28T06:11:38.470Z,27.70
2018-03-28T06:14:06.795Z,29.42
2018-03-28T06:16:35.094Z,25.02
2018-03-28T06:19:03.428Z,28.62
2018-03-28T06:21:32.576Z,30.33
2018-03-28T06:24:01.002Z,32.70
2018-03-28T06:26:29.409Z,25.80
2018-03-28T06:28:58.408Z,31.62
2018-03-28T06:31:26.947Z,30.90
2018-03-28T06:33:55.531Z,28.17
2018-03-28T06:36:24.104Z,30.08
2018-03-28T06:38:53.450Z,31.40
2018-03-28T06:41:21.842Z,30.05
2018-03-28T06:43:50.142Z,26.67
2018-03-28T06:46:18.479Z,26.20
2018-03-28T06:48:46.774Z,30.62
2018-03-28T06:51:15.148Z,30.08
2018-03-28T06:53:44.301Z,28.92
2018-03-28T06:56:12.691Z,29.85
2018-03-28T06:58:41.154Z,29.50
2018-03-28T07:01:10.235Z,30.70
2018-03-28T07:03:38.641Z,31.12
2018-03-28T07:06:06.948Z,33.78
2018-03-28T07:08:35.242Z,33.50
2018-03-28T07:11:03.566Z,29.60
2018-03-28T07:13:31.906Z,30.62
2018-03-28T07:16:00.999Z,31.62
2018-03-28T07:18:29.518Z,28.02
2018-03-28T07:20:58.043Z,31.62
2018-03-28T07:23:27.457Z,32.65
2018-03-28T07:25:56.781Z,31.10
2018-03-28T07:28:27.210Z,29.85
2018-03-28T07:30:55.706Z,30.73
2018-03-28T07:33:24.221Z,34.33
2018-03-28T07:35:52.883Z,32.83
2018-03-28T07:38:21.243Z,32.33
2018-03-28T07:40:49.543Z,31.23
2018-03-28T07:43:17.891Z,33.47
2018-03-28T07:45:46.258Z,34.60
2018-03-28T07:48:14.684Z,35.17
2018-03-28T07:50:43.154Z,34.60
2018-03-28T07:53:11.503Z,22.60
2018-03-28T07:55:39.843Z,28.05
2018-03-28T07:58:08.133Z,35.22
2018-03-28T08:00:36.457Z,36.17
2018-03-28T08:03:04.771Z,36.63
2018-03-28T08:05:33.106Z,34.17
2018-03-28T08:08:02.202Z,36.78
2018-03-28T08:10:30.626Z,39.40
2018-03-28T08:12:59.798Z,37.00
2018-03-28T08:15:28.253Z,39.65
2018-03-28T08:17:56.630Z,40.12
2018-03-28T08:20:25.022Z,37.80
2018-03-28T08:22:54.450Z,33.78
2018-03-28T08:25:23.684Z,35.40
2018-03-28T08:27:52.946Z,35.38
2018-03-28T08:30:21.410Z,38.58
2018-03-28T08:32:49.833Z,38.15
2018-03-28T08:35:18.105Z,36.30
2018-03-28T08:37:46.519Z,38.38
2018-03-28T08:40:15.014Z,38.40
2018-03-28T08:42:44.250Z,38.65
2018-03-28T08:45:12.706Z,39.00
2018-03-28T08:47:41.006Z,39.78
2018-03-28T08:50:09.358Z,39.03
2018-03-28T08:52:37.659Z,40.97
2018-03-28T08:55:05.959Z,37.45
2018-03-28T08:57:34.296Z,38.70
2018-03-28T09:00:02.620Z,35.47
2018-03-28T09:02:31.032Z,41.55
2018-03-28T09:04:59.470Z,39.85
2018-03-28T09:07:27.878Z,44.80
2018-03-28T09:09:56.420Z,38.37
2018-03-28T09:12:25.218Z,38.85
2018-03-28T09:14:53.644Z,40.78
2018-03-28T09:17:22.840Z,38.80
2018-03-28T09:19:52.497Z,34.95
2018-03-28T09:22:20.831Z,37.33
2018-03-28T09:24:49.124Z,26.90
2018-03-28T09:27:17.446Z,40.95
2018-03-28T09:29:45.803Z,37.70
2018-03-28T09:32:15.087Z,29.67
2018-03-28T09:34:44.419Z,35.90
2018-03-28T09:37:12.951Z,36.70
2018-03-28T09:39:42.562Z,31.90
2018-03-28T09:42:10.917Z,36.95
2018-03-28T09:44:39.254Z,41.30
2018-03-28T09:47:07.582Z,36.50
2018-03-28T09:49:35.927Z,38.30
2018-03-28T09:52:04.279Z,34.38
2018-03-28T09:54:32.602Z,35.25
2018-03-28T09:57:01.010Z,44.42
2018-03-28T09:59:30.247Z,44.22
2018-03-28T10:01:58.755Z,42.58
2018-03-28T10:04:27.294Z,37.17
2018-03-28T10:06:55.802Z,34.25
2018-03-28T10:09:24.596Z,38.53
2018-03-28T10:11:53.052Z,39.47
2018-03-28T10:14:21.435Z,28.55
2018-03-28T10:16:49.747Z,40.95
2018-03-28T10:19:18.042Z,29.20
2018-03-28T10:21:46.378Z,34.55
2018-03-28T10:24:14.914Z,26.42
2018-03-28T10:26:44.267Z,34.47
2018-03-28T10:29:12.598Z,35.58
2018-03-28T10:31:40.934Z,35.33
2018-03-28T10:34:09.994Z,33.95
2018-03-28T10:36:38.305Z,24.27
2018-03-28T10:39:06.630Z,34.83
2018-03-28T10:41:35.010Z,35.05
2018-03-28T10:44:03.302Z,28.62
2018-03-28T10:46:31.735Z,26.40
2018-03-28T10:49:01.539Z,30.83
2018-03-28T10:51:29.970Z,28.40
2018-03-28T10:53:59.168Z,24.27
2018-03-28T10:56:27.758Z,31.60
2018-03-28T10:58:57.227Z,33.47
2018-03-28T11:01:26.540Z,28.38
2018-03-28T11:03:54.959Z,28.62
2018-03-28T11:06:23.623Z,32.17
2018-03-28T11:08:51.994Z,27.02
2018-03-28T11:11:20.318Z,30.95
2018-03-28T11:13:48.655Z,26.85
2018-03-28T11:16:17.206Z,26.10
2018-03-28T11:18:45.777Z,27.75
2018-03-28T11:21:14.139Z,24.77
2018-03-28T11:23:42.464Z,20.23
2018-03-28T11:26:10.847Z,25.55
2018-03-28T11:28:39.152Z,22.40
2018-03-28T11:31:07.451Z,26.98
2018-03-28T11:33:35.785Z,25.50
2018-03-28T11:36:04.078Z,24.20
2018-03-28T11:38:32.613Z,26.45
2018-03-28T11:41:00.979Z,27.45
2018-03-28T11:43:29.349Z,26.92
2018-03-28T11:45:58.562Z,26.50
2018-03-28T11:48:26.942Z,23.98
2018-03-28T11:50:55.781Z,15.65
2018-03-28T11:53:25.015Z,27.55
2018-03-28T11:55:53.616Z,21.90
2018-03-28T11:58:22.020Z,23.27
2018-03-28T12:00:50.384Z,19.12
2018-03-28T12:03:18.750Z,22.10
2018-03-28T12:05:47.833Z,25.85
2018-03-28T12:08:16.434Z,15.80
2018-03-28T12:10:44.886Z,20.23
2018-03-28T12:13:14.263Z,20.92
2018-03-28T12:15:43.451Z,18.10
2018-03-28T12:18:11.737Z,26.02
2018-03-28T12:20:40.835Z,14.98
2018-03-28T12:23:10.675Z,23.75
2018-03-28T12:25:39.006Z,26.37
2018-03-28T12:28:07.302Z,17.25
2018-03-28T12:30:35.602Z,23.87
2018-03-28T12:33:04.707Z,26.20
2018-03-28T12:35:33.766Z,22.85
2018-03-28T12:38:02.150Z,17.05
2018-03-28T12:40:31.248Z,26.23
2018-03-28T12:42:59.646Z,24.08
2018-03-28T12:45:28.177Z,20.65
2018-03-28T12:47:57.290Z,29.08
2018-03-28T12:50:25.854Z,21.27
2018-03-28T12:52:54.572Z,25.80
2018-03-28T12:55:23.154Z,15.82
2018-03-28T12:57:51.406Z,29.45
2018-03-28T13:00:19.747Z,21.02
2018-03-28T13:02:48.035Z,20.27
2018-03-28T13:05:16.359Z,17.27
2018-03-28T13:07:44.745Z,27.65
2018-03-28T13:10:13.087Z,25.42
2018-03-28T13:12:41.608Z,28.42
2018-03-28T13:15:09.998Z,26.87
2018-03-28T13:17:38.286Z,23.05
2018-03-28T13:20:06.621Z,17.30
2018-03-28T13:22:34.958Z,28.95
2018-03-28T13:25:03.263Z,19.92
2018-03-28T13:27:31.560Z,30.20
2018-03-28T13:30:00.729Z,27.25
2018-03-28T13:32:29.716Z,24.00
2018-03-28T13:34:59.488Z,26.00
2018-03-28T13:37:28.424Z,26.65
2018-03-28T13:39:56.938Z,26.27
2018-03-28T13:42:26.124Z,31.45
2018-03-28T13:44:54.703Z,25.90
2018-03-28T13:47:23.202Z,19.40
2018-03-28T13:49:51.511Z,26.73
2018-03-28T13:52:19.834Z,26.45
2018-03-28T13:54:48.128Z,28.80
2018-03-28T13:57:16.469Z,28.30
2018-03-28T13:59:44.802Z,28.40
2018-03-28T14:02:13.974Z,22.87
2018-03-28T14:04:42.398Z,17.12
2018-03-28T14:07:10.702Z,30.00
2018-03-28T14:09:39.041Z,27.50
2018-03-28T14:12:07.335Z,27.65
2018-03-28T14:14:36.429Z,26.67
2018-03-28T14:17:04.731Z,27.87
2018-03-28T14:19:33.060Z,25.10
2018-03-28T14:22:02.137Z,28.27
2018-03-28T14:24:30.567Z,25.37
2018-03-28T14:26:58.977Z,23.43
2018-03-28T14:29:27.447Z,30.25
2018-03-28T14:31:55.981Z,20.75
2018-03-28T14:34:25.140Z,27.05
2018-03-28T14:36:54.481Z,28.60
2018-03-28T14:39:22.964Z,26.12
2018-03-28T14:41:51.294Z,27.37
2018-03-28T14:44:19.628Z,24.27
2018-03-28T14:46:47.922Z,27.10
2018-03-28T14:49:16.387Z,30.08
2018-03-28T14:51:44.817Z,28.35
2018-03-28T14:54:13.323Z,27.60
2018-03-28T14:56:42.777Z,27.37
2018-03-28T14:59:11.078Z,29.17
2018-03-28T15:01:39.381Z,23.12
2018-03-28T15:04:07.711Z,27.70
2018-03-28T15:06:36.765Z,28.50
2018-03-28T15:09:06.782Z,27.83
2018-03-28T15:11:35.547Z,26.33
2018-03-28T15:14:04.975Z,24.08
2018-03-28T15:16:33.682Z,25.73
2018-03-28T15:19:02.255Z,22.70
2018-03-28T15:21:30.707Z,21.60
2018-03-28T15:23:59.205Z,21.80
2018-03-28T15:26:27.813Z,23.50
2018-03-28T15:28:56.169Z,25.93
2018-03-28T15:31:24.918Z,26.92
2018-03-28T15:33:54.508Z,26.10
2018-03-28T15:36:22.977Z,23.92
2018-03-28T15:38:51.385Z,24.92
2018-03-28T15:41:20.617Z,20.42
2018-03-28T15:43:48.948Z,26.47
2018-03-28T15:46:18.152Z,20.90
2018-03-28T15:48:46.476Z,25.50
2018-03-28T15:51:14.871Z,26.35
2018-03-28T15:53:44.139Z,26.05
2018-03-28T15:56:12.499Z,23.85
2018-03-28T15:58:41.633Z,25.83
2018-03-28T16:01:09.927Z,26.37
2018-03-28T16:03:39.163Z,23.63
2018-03-28T16:06:07.454Z,20.77
2018-03-28T16:08:35.788Z,27.42
2018-03-28T16:11:04.096Z,24.03
2018-03-28T16:13:32.395Z,27.10
2018-03-28T16:16:00.749Z,26.43
2018-03-28T16:18:29.907Z,27.95
2018-03-28T16:20:58.370Z,28.75
2018-03-28T16:23:27.665Z,27.80
2018-03-28T16:25:56.863Z,29.27
2018-03-28T16:28:25.274Z,26.60
2018-03-28T16:30:54.511Z,26.90
2018-03-28T16:33:22.998Z,22.93
2018-03-28T16:35:51.739Z,27.73
2018-03-28T16:38:20.063Z,28.67
2018-03-28T16:40:48.382Z,24.67
2018-03-28T16:43:17.452Z,24.60
2018-03-28T16:45:45.792Z,23.45
2018-03-28T16:48:15.185Z,23.35
2018-03-28T16:50:43.659Z,21.40
2018-03-28T16:53:12.175Z,22.20
2018-03-28T16:55:40.458Z,21.10
2018-03-28T16:58:08.813Z,22.87
2018-03-28T17:00:37.907Z,22.40
2018-03-28T17:03:06.192Z,19.63
2018-03-28T17:05:34.517Z,23.33
2018-03-28T17:08:02.814Z,20.37
2018-03-28T17:10:31.131Z,24.63
2018-03-28T17:12:59.566Z,25.20
2018-03-28T17:15:28.020Z,22.10
2018-03-28T17:17:56.519Z,19.73
2018-03-28T17:20:25.250Z,23.43
2018-03-28T17:22:53.644Z,21.93
2018-03-28T17:25:22.882Z,25.20
2018-03-28T17:27:51.295Z,25.15
2018-03-28T17:30:19.601Z,23.90
2018-03-28T17:32:47.899Z,26.10
2018-03-28T17:35:16.226Z,23.83
2018-03-28T17:37:46.281Z,24.90
2018-03-28T17:40:15.336Z,25.27
2018-03-28T17:42:43.724Z,26.33
2018-03-28T17:45:12.396Z,27.40
2018-03-28T17:47:40.680Z,25.67
2018-03-28T17:50:08.986Z,28.60
2018-03-28T17:52:37.315Z,27.47
2018-03-28T17:55:06.614Z,24.50
2018-03-28T17:57:34.902Z,30.67
2018-03-28T18:00:03.251Z,32.53
2018-03-28T18:02:32.345Z,28.15
2018-03-28T18:05:00.643Z,29.57
2018-03-28T18:07:29.155Z,24.83
2018-03-28T18:09:57.849Z,28.70
2018-03-28T18:12:26.354Z,29.13
2018-03-28T18:14:54.822Z,27.50
2018-03-28T18:17:23.339Z,30.77
2018-03-28T18:19:51.678Z,29.70
2018-03-28T18:22:19.994Z,29.27
2018-03-28T18:24:48.324Z,26.13
2018-03-28T18:27:17.383Z,25.73
2018-03-28T18:29:45.804Z,31.43
2018-03-28T18:32:14.307Z,30.75
2018-03-28T18:34:42.674Z,29.90
2018-03-28T18:37:11.803Z,29.20
2018-03-28T18:39:40.094Z,34.20
2018-03-28T18:42:08.407Z,30.53
2018-03-28T18:44:36.738Z,31.77
2018-03-28T18:47:05.075Z,35.00
2018-03-28T18:49:33.359Z,33.80
2018-03-28T18:52:01.684Z,22.90
2018-03-28T18:54:31.029Z,31.67
2018-03-28T18:56:59.572Z,31.83
2018-03-28T18:59:28.241Z,34.93
2018-03-28T19:01:56.818Z,34.60
2018-03-28T19:04:26.248Z,28.07
2018-03-28T19:06:54.996Z,31.37
2018-03-28T19:09:23.836Z,31.03
2018-03-28T19:11:52.887Z,30.60
2018-03-28T19:14:21.413Z,35.80
2018-03-28T19:16:49.764Z,30.80
2018-03-28T19:19:18.106Z,33.37
2018-03-28T19:21:46.520Z,36.27
2018-03-28T19:24:15.702Z,36.20
2018-03-28T19:26:44.165Z,36.47
2018-03-28T19:29:12.508Z,35.50
2018-03-28T19:31:41.793Z,35.13
2018-03-28T19:34:11.806Z,35.47
2018-03-28T19:36:40.143Z,38.57
2018-03-28T19:39:09.199Z,30.17
2018-03-28T19:41:37.519Z,35.77
2018-03-28T19:44:05.812Z,32.87
2018-03-28T19:46:34.103Z,36.90
2018-03-28T19:49:02.527Z,28.30
2018-03-28T19:51:30.922Z,35.70
2018-03-28T19:54:00.499Z,38.33
2018-03-28T19:56:28.943Z,39.80
2018-03-28T19:58:57.446Z,38.33
2018-03-28T20:01:25.967Z,42.13
2018-03-28T20:03:55.270Z,39.90
2018-03-28T20:06:23.793Z,39.90
2018-03-28T20:08:52.307Z,40.67
2018-03-28T20:11:20.861Z,42.40
2018-03-28T20:13:49.110Z,37.20
2018-03-28T20:16:17.763Z,33.00
2018-03-28T20:18:46.222Z,36.43
2018-03-28T20:21:14.562Z,30.83
2018-03-28T20:23:43.238Z,37.23
2018-03-28T20:26:12.567Z,38.53
2018-03-28T20:28:40.918Z,38.47
2018-03-28T20:31:10.006Z,32.67
2018-03-28T20:33:38.300Z,23.73
2018-03-28T20:36:06.626Z,33.97
2018-03-28T20:38:34.962Z,36.33
2018-03-28T20:41:03.301Z,38.37
2018-03-28T20:43:31.776Z,40.17
2018-03-28T20:46:00.144Z,37.73
2018-03-28T20:48:28.654Z,37.83
2018-03-28T20:50:57.819Z,36.37
2018-03-28T20:53:26.487Z,38.13
2018-03-28T20:55:55.612Z,35.53
2018-03-28T20:58:24.091Z,37.27
2018-03-28T21:00:53.453Z,41.87
2018-03-28T21:03:22.115Z,42.17
2018-03-28T21:05:50.638Z,37.50
2018-03-28T21:08:19.286Z,41.73
2018-03-28T21:10:47.736Z,35.30
2018-03-28T21:13:16.127Z,36.40
2018-03-28T21:15:44.862Z,37.90
2018-03-28T21:18:13.202Z,31.17
2018-03-28T21:20:42.264Z,38.37
2018-03-28T21:23:10.590Z,39.03
2018-03-28T21:25:38.889Z,38.10
2018-03-28T21:28:07.180Z,39.23
2018-03-28T21:30:35.508Z,39.30
2018-03-28T21:33:03.855Z,38.70
2018-03-28T21:35:32.314Z,37.97
2018-03-28T21:38:01.054Z,36.43
2018-03-28T21:40:29.927Z,35.70
2018-03-28T21:42:58.429Z,31.60
2018-03-28T21:45:27.119Z,33.90
2018-03-28T21:47:55.811Z,30.80
2018-03-28T21:50:24.489Z,37.30
2018-03-28T21:52:53.151Z,35.90
2018-03-28T21:55:21.582Z,35.00
2018-03-28T21:57:50.681Z,36.20
2018-03-28T22:00:19.695Z,31.87
2018-03-28T22:02:48.150Z,31.50
2018-03-28T22:05:17.545Z,34.93
2018-03-28T22:07:46.087Z,36.07
2018-03-28T22:10:14.578Z,34.33
2018-03-28T22:12:42.915Z,35.27
2018-03-28T22:15:11.998Z,31.57
2018-03-28T22:17:40.290Z,31.60
2018-03-28T22:20:08.628Z,32.13
2018-03-28T22:22:37.723Z,34.60
2018-03-28T22:25:06.090Z,29.20
2018-03-28T22:27:34.424Z,31.90
2018-03-28T22:30:02.982Z,34.73
2018-03-28T22:32:31.472Z,30.70
2018-03-28T22:35:00.839Z,29.57
2018-03-28T22:37:29.998Z,30.40
2018-03-28T22:39:59.447Z,22.63
2018-03-28T22:42:28.238Z,29.70
2018-03-28T22:44:56.933Z,31.87
2018-03-28T22:47:26.077Z,31.00
2018-03-28T22:49:54.854Z,31.37
2018-03-28T22:52:23.799Z,28.77
2018-03-28T22:54:54.834Z,29.57
2018-03-28T22:57:24.130Z,28.67
2018-03-28T22:59:52.560Z,26.53
2018-03-28T23:02:20.891Z,30.50
2018-03-28T23:04:49.427Z,27.47
2018-03-28T23:07:18.571Z,28.90
2018-03-28T23:09:47.035Z,28.07
2018-03-28T23:12:16.171Z,23.03
2018-03-28T23:14:44.633Z,26.00
2018-03-28T23:17:14.039Z,27.53
2018-03-28T23:19:42.430Z,27.37
2018-03-28T23:22:23.381Z,31.00
2018-03-28T23:24:51.922Z,27.47
2018-03-28T23:27:20.482Z,30.30
2018-03-28T23:29:48.799Z,27.40
2018-03-28T23:32:17.436Z,25.77
2018-03-28T23:34:45.870Z,28.30
2018-03-28T23:37:14.207Z,28.90
2018-03-28T23:39:42.617Z,29.77
2018-03-28T23:42:10.902Z,27.90
2018-03-28T23:44:39.238Z,28.40
2018-03-28T23:47:07.539Z,29.20
2018-03-28T23:49:35.859Z,27.90
2018-03-28T23:52:04.970Z,26.00
2018-03-28T23:54:33.371Z,30.60
2018-03-28T23:57:01.943Z,29.70
2018-03-28T23:59:31.176Z,30.30
